Latest Weather Observations for Learmonth

IDW60801

Issued at 8:03 pm WST Wednesday 28 June 2017 (issued every 30 minutes, with the page automatically refreshed every 10 minutes)

About weather observations | Map of weather stations | Latest weather observations for WA | Other Formats
Station Details ID: 005007 Name: LEARMONTH AIRPORT Lat: -22.24 Lon: 114.10 Height: 5.0 m
Data from the previous 72 hours. | See also: Recent months at Learmonth
Date/Time
WST
Temp
°C
App
Temp
°C
Dew
Point
°C
Rel
Hum
%
Delta-T
°C
Wind Press
QNH
hPa
Press
MSL
hPa
Rain since
9am
mm
Dir  Spd
km/h
Gust
km/h
Spd
kts
Gust
kts
28/07:30pm 15.8 12.8 1.9 39 6.1 SW 7 7 4 4 1021.0 - 0.0
28/07:00pm 16.8 15.4 3.8 42 6.0 CALM 0 0 0 0 1020.8 - 0.0
28/06:30pm 17.3 14.7 4.3 42 6.1 S 7 9 4 5 1020.6 - 0.0
28/06:00pm 19.4 16.7 5.5 40 6.8 SE 9 11 5 6 1020.3 1020.2 0.0
28/05:30pm 21.8 17.7 2.5 28 9.1 SE 13 15 7 8 1020.2 - 0.0
28/05:00pm 23.1 18.5 1.4 24 10.1 SE 15 19 8 10 1020.2 - 0.0
28/04:30pm 23.3 18.2 1.0 23 10.3 SE 17 20 9 11 1020.2 - 0.0
28/04:00pm 23.3 19.1 1.6 24 10.2 SE 13 20 7 11 1020.1 - 0.0
28/03:30pm 22.6 19.8 2.1 26 9.6 ESE 6 11 3 6 1020.3 - 0.0
28/03:00pm 22.1 18.9 3.3 29 9.0 ENE 9 15 5 8 1020.3 1020.2 0.0
28/02:30pm 21.9 19.0 4.5 32 8.5 NE 9 17 5 9 1020.3 - 0.0
28/02:00pm 21.5 18.2 4.6 33 8.3 NNE 11 17 6 9 1020.6 - 0.0
28/01:30pm 21.1 17.5 5.1 35 7.9 NNE 13 19 7 10 1021.1 - 0.0
28/01:00pm 21.0 17.5 5.4 36 7.7 NE 13 19 7 10 1021.8 - 0.0
28/12:30pm 20.7 16.7 5.1 36 7.7 NE 15 20 8 11 1022.2 - 0.0
28/12:00pm 20.8 16.5 5.2 36 7.6 ENE 17 22 9 12 1022.7 1022.6 0.0
28/11:30am 20.4 15.7 5.2 37 7.5 ENE 19 26 10 14 1023.1 - 0.0
28/11:00am 19.8 15.2 5.5 39 7.0 ENE 19 26 10 14 1023.2 - 0.0
28/10:30am 19.7 15.5 5.7 40 6.9 NE 17 22 9 12 1023.4 - 0.0
28/10:00am 18.5 14.0 7.0 47 5.8 E 20 26 11 14 1023.7 - 0.0
28/09:30am 17.5 12.0 6.1 47 5.6 E 24 32 13 17 1023.8 - 0.0
28/09:00am 17.7 11.9 6.3 47 5.6 ESE 26 32 14 17 1023.7 1023.6 0.0
28/08:30am 17.2 12.6 6.4 49 5.3 SE 20 28 11 15 1023.3 - 0.0
28/08:00am 13.8 10.9 4.9 55 4.1 SW 9 13 5 7 1023.0 - 0.0
28/07:30am 10.9 7.6 4.4 64 2.9 WSW 11 15 6 8 1022.7 - 0.0
28/07:00am 9.5 5.3 3.7 67 2.5 SW 15 17 8 9 1022.4 - 0.0
28/06:30am 10.3 6.5 4.0 65 2.8 SW 13 17 7 9 1022.0 - 0.0
28/06:00am 10.6 6.8 4.1 64 2.9 SW 13 17 7 9 1021.7 1021.6 0.0
28/05:30am 10.1 6.3 3.8 65 2.8 S 13 15 7 8 1021.4 - 0.0
28/05:00am 11.2 7.5 4.2 62 3.1 SSW 13 15 7 8 1021.2 - 0.0
28/04:30am 11.1 7.6 3.6 60 3.3 SSW 11 13 6 7 1021.3 - 0.0
28/04:00am 11.9 8.5 3.9 58 3.6 SSW 11 13 6 7 1021.5 - 0.0
28/03:30am 12.7 9.0 4.2 56 3.9 SSW 13 15 7 8 1021.5 - 0.0
28/03:00am 13.6 10.2 3.9 52 4.4 S 11 15 6 8 1021.4 1021.3 0.0
28/02:30am 15.5 10.7 4.5 48 5.1 SSE 19 26 10 14 1021.2 - 0.0
28/02:00am 15.9 10.9 4.6 47 5.3 SSE 20 28 11 15 1021.2 - 0.0
28/01:30am 15.9 11.0 4.9 48 5.2 SSE 20 26 11 14 1021.3 - 0.0
28/01:00am 14.5 9.7 5.6 55 4.2 SSE 20 26 11 14 1021.2 - 0.0
28/12:30am 12.4 8.0 4.6 59 3.6 S 17 17 9 9 1021.1 - 0.0
28/12:00am 11.6 7.4 3.9 59 3.4 SSW 15 17 8 9 1021.1 1021.0 0.0
 
Date/Time
WST
Temp
°C
App
Temp
°C
Dew
Point
°C
Rel
Hum
%
Delta-T
°C
Wind Press
QNH
hPa
Press
MSL
hPa
Rain since
9am
mm
Dir  Spd
km/h
Gust
km/h
Spd
kts
Gust
kts
27/11:30pm 12.9 8.7 3.8 54 4.1 S 15 17 8 9 1021.1 - 0.0
27/11:00pm 14.5 10.0 4.2 50 4.7 S 17 20 9 11 1021.0 - 0.0
27/10:30pm 15.1 10.2 3.9 47 5.1 S 19 22 10 12 1021.1 - 0.0
27/10:00pm 15.1 10.2 4.2 48 5.0 S 19 22 10 12 1021.1 - 0.0
27/09:30pm 14.4 9.8 3.8 49 4.8 S 17 19 9 10 1021.1 - 0.0
27/09:00pm 14.1 9.1 3.6 49 4.7 SSW 19 20 10 11 1020.8 1020.7 0.0
27/08:30pm 14.5 9.9 3.6 48 4.9 SSW 17 19 9 10 1020.6 - 0.0
27/08:00pm 15.4 11.0 4.5 48 5.1 S 17 19 9 10 1020.3 - 0.0
27/07:30pm 16.2 11.9 5.2 48 5.2 SSW 17 20 9 11 1020.0 - 0.0
27/07:00pm 16.9 12.8 6.1 49 5.3 S 17 19 9 10 1019.9 - 0.0
27/06:30pm 18.3 14.1 5.8 44 6.1 S 17 19 9 10 1019.7 - 0.0
27/06:00pm 20.2 16.3 5.4 38 7.3 S 15 19 8 10 1019.5 1019.4 0.0
27/05:30pm 23.3 18.4 4.3 29 9.4 SSE 19 22 10 12 1019.0 - 0.0
27/05:00pm 24.6 19.1 3.8 26 10.2 SSE 22 28 12 15 1018.8 - 0.0
27/04:30pm 25.3 19.2 2.7 23 11.0 SE 24 30 13 16 1018.5 - 0.0
27/04:00pm 25.5 19.0 2.9 23 11.0 SE 26 35 14 19 1018.5 - 0.0
27/03:30pm 26.0 19.0 2.0 21 11.5 SE 28 37 15 20 1018.4 - 0.0
27/03:00pm 25.9 18.4 1.2 20 11.7 SE 30 37 16 20 1018.3 1018.2 0.0
27/02:30pm 25.6 18.6 1.7 21 11.4 SE 28 35 15 19 1018.5 - 0.0
27/02:00pm 25.3 19.4 3.9 25 10.6 SE 24 35 13 19 1018.8 - 0.0
27/01:30pm 24.9 18.5 5.2 28 10.0 SE 28 33 15 18 1019.1 - 0.0
27/01:00pm 24.2 18.1 6.5 32 9.1 SE 28 35 15 19 1019.5 - 0.0
27/12:30pm 22.9 18.0 7.0 36 8.2 SE 22 30 12 16 1020.1 - 0.0
27/12:00pm 22.1 17.8 7.9 40 7.4 SE 20 26 11 14 1020.7 1020.6 0.0
27/11:30am 21.3 17.0 7.9 42 7.0 ESE 20 26 11 14 1021.2 - 0.0
27/11:00am 20.9 16.8 8.5 45 6.5 ESE 20 32 11 17 1021.5 - 0.0
27/10:30am 20.0 15.8 8.4 47 6.0 ESE 20 30 11 16 1022.0 - 0.0
27/10:00am 20.0 15.5 8.7 48 5.9 SE 22 28 12 15 1022.0 - 0.0
27/09:30am 19.4 15.3 8.7 50 5.6 SE 20 26 11 14 1022.3 - 0.0
27/09:00am 18.6 14.7 8.8 53 5.1 SSE 19 24 10 13 1022.2 1022.1 0.0
27/08:30am 16.5 14.1 8.7 60 4.0 S 11 15 6 8 1022.0 - 0.0
27/08:00am 14.1 12.0 8.1 67 3.0 WSW 9 13 5 7 1021.8 - 0.0
27/07:30am 12.2 9.2 7.7 74 2.2 SW 13 17 7 9 1021.3 - 0.0
27/07:00am 11.4 8.0 7.7 78 1.8 SW 15 17 8 9 1020.9 - 0.0
27/06:30am 14.3 10.7 8.5 68 2.9 SSE 17 22 9 12 1020.5 - 0.0
27/06:00am 15.0 10.9 8.7 66 3.2 SSE 20 26 11 14 1020.2 1020.1 0.0
27/05:30am 15.4 11.0 9.1 66 3.2 SSE 22 30 12 16 1019.8 - 0.0
27/05:00am 15.5 11.5 9.0 65 3.3 SSE 20 26 11 14 1019.8 - 0.0
27/04:30am 13.8 10.2 8.4 70 2.7 S 17 20 9 11 1019.8 - 0.0
27/04:00am 14.0 10.4 8.2 68 2.9 S 17 19 9 10 1019.8 - 0.0
27/03:30am 14.9 10.9 8.4 65 3.3 S 19 22 10 12 1019.6 - 0.0
27/03:00am 14.9 10.9 8.4 65 3.3 S 19 22 10 12 1019.5 1019.4 0.0
27/02:30am 15.4 11.8 8.4 63 3.5 S 17 22 9 12 1019.5 - 0.0
27/02:00am 15.4 11.4 8.2 62 3.6 S 19 22 10 12 1019.7 - 0.0
27/01:30am 15.9 11.9 8.2 60 3.9 S 19 20 10 11 1019.5 - 0.0
27/01:00am 16.2 12.2 8.2 59 4.0 S 19 22 10 12 1019.5 - 0.0
27/12:30am 16.7 12.5 8.4 58 4.2 S 20 24 11 13 1019.5 - 0.0
27/12:00am 14.8 11.5 8.1 64 3.3 S 15 20 8 11 1019.5 1019.4 0.0
 
Date/Time
WST
Temp
°C
App
Temp
°C
Dew
Point
°C
Rel
Hum
%
Delta-T
°C
Wind Press
QNH
hPa
Press
MSL
hPa
Rain since
9am
mm
Dir  Spd
km/h
Gust
km/h
Spd
kts
Gust
kts
26/11:30pm 14.8 10.9 6.9 59 3.9 S 17 20 9 11 1019.6 - 0.0
26/11:00pm 15.3 11.3 6.8 57 4.2 S 17 20 9 11 1019.6 - 0.0
26/10:30pm 16.0 12.0 6.7 54 4.6 S 17 20 9 11 1019.6 - 0.0
26/10:00pm 16.8 12.5 6.9 52 4.9 S 19 24 10 13 1019.6 - 0.0
26/09:30pm 16.6 12.3 7.0 53 4.8 S 19 22 10 12 1019.4 - 0.0
26/09:00pm 16.6 12.6 6.7 52 4.9 S 17 20 9 11 1019.2 1019.1 0.0
26/08:30pm 16.7 12.7 6.8 52 4.9 S 17 20 9 11 1018.8 - 0.0
26/08:00pm 16.7 12.9 7.4 54 4.6 SSW 17 19 9 10 1018.6 - 0.0
26/07:30pm 17.9 14.3 8.5 54 4.8 S 17 19 9 10 1018.2 - 0.0
26/07:00pm 19.4 15.7 8.1 48 5.8 S 17 22 9 12 1018.0 - 0.0
26/06:30pm 20.6 16.6 8.3 45 6.4 S 19 22 10 12 1017.8 - 0.0
26/06:00pm 21.8 17.2 8.0 41 7.2 SSE 22 28 12 15 1017.3 1017.2 0.0
26/05:30pm 23.1 18.3 7.2 36 8.2 SSE 22 32 12 17 1017.1 - 0.0
26/05:00pm 24.1 18.0 6.8 33 9.0 SSE 28 33 15 18 1016.8 - 0.0
26/04:30pm 24.6 18.5 6.8 32 9.3 SSE 28 35 15 19 1016.7 - 0.0
26/04:00pm 25.4 18.3 6.6 30 9.8 SSE 33 44 18 24 1016.2 - 0.0
26/03:30pm 25.5 19.0 6.7 30 9.8 SSE 30 39 16 21 1016.1 - 0.0
26/03:00pm 26.0 19.4 6.1 28 10.3 SSE 30 35 16 19 1016.2 1016.1 0.0
26/02:30pm 24.6 18.3 7.3 33 9.1 S 30 37 16 20 1016.5 - 0.0
26/02:00pm 24.9 19.1 8.0 34 9.0 S 28 37 15 20 1016.7 - 0.0
26/01:30pm 24.3 19.5 8.7 37 8.4 SSE 24 33 13 18 1017.1 - 0.0
26/01:00pm 24.1 19.4 9.3 39 8.0 SSE 24 37 13 20 1017.4 - 0.0
26/12:30pm 23.3 18.1 10.4 44 7.1 SSE 28 33 15 18 1017.8 - 0.0
26/12:00pm 22.6 18.8 11.0 48 6.4 ESE 22 28 12 15 1018.4 1018.3 0.0
26/11:30am 22.5 18.5 11.9 51 6.0 SSE 24 30 13 16 1018.8 - 0.0
26/11:00am 21.2 17.0 11.2 53 5.5 SSE 24 32 13 17 1019.2 - 0.0
26/10:30am 20.1 15.6 11.3 57 4.8 SE 26 33 14 18 1019.5 - 0.0
26/10:00am 20.0 15.2 11.5 58 4.7 SE 28 35 15 19 1019.7 - 0.0
26/09:30am 19.2 13.8 11.0 59 4.5 SE 30 39 16 21 1019.6 - 0.0
26/09:00am 18.2 13.6 11.0 63 3.9 SSE 26 35 14 19 1019.5 1019.4 0.0
26/08:30am 16.7 13.7 10.8 68 3.2 S 17 22 9 12 1019.4 - 0.0
26/08:00am 14.4 12.0 10.0 75 2.3 SW 13 15 7 8 1019.3 - 0.0
26/07:30am 12.4 9.4 9.4 82 1.5 SSW 15 19 8 10 1018.9 - 0.0
26/07:00am 11.8 8.7 9.0 83 1.4 SW 15 17 8 9 1018.7 - 0.0
26/06:30am 12.0 8.6 9.0 82 1.5 SSW 17 20 9 11 1018.2 - 0.0
26/06:00am 12.3 8.9 9.1 81 1.6 SW 17 17 9 9 1018.1 1018.0 0.0
26/05:30am 12.7 10.5 9.2 79 1.8 SW 11 15 6 8 1018.0 - 0.0
26/05:00am 12.9 9.9 9.2 78 1.9 SW 15 17 8 9 1017.6 - 0.0
26/04:30am 13.5 10.9 9.4 76 2.1 WSW 13 15 7 8 1017.7 - 0.0
26/04:00am 13.5 11.6 9.0 74 2.3 WSW 9 11 5 6 1017.5 - 0.0
26/03:30am 15.2 11.6 9.8 70 2.8 SSW 19 24 10 13 1017.3 - 0.0
26/03:00am 14.6 11.6 9.2 70 2.8 SW 15 17 8 9 1017.2 1017.1 0.0
26/02:30am 14.6 12.0 9.2 70 2.8 SW 13 17 7 9 1017.1 - 0.0
26/02:00am 13.9 11.2 8.9 72 2.5 SW 13 15 7 8 1017.1 - 0.0
26/01:30am 14.3 11.2 8.9 70 2.7 SSW 15 17 8 9 1017.1 - 0.0
26/01:00am 14.1 10.9 8.5 69 2.8 SSW 15 17 8 9 1017.0 - 0.0
26/12:30am 14.6 11.8 8.5 67 3.1 SSW 13 15 7 8 1016.9 - 0.0
26/12:00am 15.2 11.6 8.2 63 3.5 SSW 17 19 9 10 1016.7 1016.6 0.0
 
Date/Time
WST
Temp
°C
App
Temp
°C
Dew
Point
°C
Rel
Hum
%
Delta-T
°C
Wind Press
QNH
hPa
Press
MSL
hPa
Rain since
9am
mm
Dir  Spd
km/h
Gust
km/h
Spd
kts
Gust
kts
25/11:30pm 15.5 12.2 8.0 61 3.8 SSW 15 17 8 9 1016.7 - 0.0
25/11:00pm 15.8 12.5 8.1 60 3.9 SSW 15 17 8 9 1016.9 - 0.0
25/10:30pm 16.2 12.6 8.2 59 4.0 SSW 17 19 9 10 1016.9 - 0.0
25/10:00pm 16.5 12.8 8.0 57 4.3 SSW 17 20 9 11 1016.7 - 0.0
25/09:30pm 17.0 13.4 8.2 56 4.5 SSW 17 20 9 11 1016.5 - 0.0
25/09:00pm 17.4 13.7 8.0 54 4.8 SSW 17 20 9 11 1016.1 1016.0 0.0
25/08:30pm 17.6 14.0 8.2 54 4.8 SSW 17 20 9 11 1015.8 - 0.0

Other Formats:

Comma delimited format used in spreadsheet applications
http://www.bom.gov.au/fwo/IDW60801/IDW60801.94302.axf

JavaScript Object Notation format (JSON) in row-major order
http://www.bom.gov.au/fwo/IDW60801/IDW60801.94302.json